Time;durP1;ratioP1;P1;durP2;ratioP2;P2;SDS_P1;SDS_P2;PMS_P1;PMS_P2;Temp;Humidity;BMP_temperature;BMP_pressure;BME280_temperature;BME280_humidity;BME280_pressure;Samples;Min_cycle;Max_cycle;Signal;HPM_P1;HPM_P2
2022/02/18 00:02:07;;;;;;;19.83;4.45;;;8.70;87.40;;;;;;5168599;28;20046;-33
2022/02/18 00:04:41;;;;;;;19.08;3.63;;;8.70;87.00;;;;;;5178918;28;20046;-33
2022/02/18 00:07:14;;;;;;;18.23;4.10;;;8.60;87.00;;;;;;5173722;28;20052;-33
2022/02/18 00:09:47;;;;;;;;;;;8.60;87.50;;;;;;5157510;28;20476;-33
2022/02/18 00:12:20;;;;;;;21.65;3.70;;;8.50;87.50;;;;;;5163523;28;19921;-32
2022/02/18 00:14:57;;;;;;;17.52;3.58;;;8.50;87.50;;;;;;5166328;28;20057;-33
2022/02/18 00:17:30;;;;;;;16.85;2.95;;;8.50;87.50;;;;;;5174337;28;20050;-33
2022/02/18 00:20:03;;;;;;;18.93;3.40;;;8.50;87.50;;;;;;5171783;28;20348;-33
2022/02/18 00:22:36;;;;;;;14.07;3.47;;;8.50;87.70;;;;;;5171881;28;20124;-33
2022/02/18 00:25:10;;;;;;;24.30;4.07;;;8.50;87.70;;;;;;5173416;28;20046;-34
2022/02/18 00:27:43;;;;;;;14.45;3.38;;;8.50;88.60;;;;;;5168930;28;20374;-33
2022/02/18 00:30:16;;;;;;;14.15;3.83;;;8.60;88.50;;;;;;5159292;28;20049;-33
2022/02/18 00:32:48;;;;;;;24.77;3.90;;;8.60;89.50;;;;;;5173734;28;20589;-33
2022/02/18 00:35:22;;;;;;;22.00;4.13;;;8.60;89.00;;;;;;5156561;28;20433;-34
2022/02/18 00:37:54;;;;;;;13.15;3.25;;;8.60;89.00;;;;;;5172778;28;20057;-33
2022/02/18 00:40:30;;;;;;;;;;;8.50;89.90;;;;;;5157397;28;20045;-33
2022/02/18 00:43:03;;;;;;;13.30;2.92;;;8.50;89.00;;;;;;5159726;28;19921;-33
2022/02/18 00:45:35;;;;;;;24.53;6.10;;;8.50;90.00;;;;;;5159196;28;20057;-33
2022/02/18 00:48:12;;;;;;;14.55;3.42;;;8.50;89.90;;;;;;5173497;28;20053;-34
2022/02/18 00:50:47;;;;;;;20.40;3.55;;;8.50;90.10;;;;;;5174803;28;20045;-33
2022/02/18 00:53:20;;;;;;;20.08;3.50;;;8.50;89.70;;;;;;5160437;28;20057;-33
2022/02/18 00:55:52;;;;;;;13.00;3.13;;;8.50;89.40;;;;;;5162485;28;20535;-34
2022/02/18 00:58:25;;;;;;;24.33;4.00;;;8.50;90.10;;;;;;5176219;28;20046;-35
2022/02/18 01:00:57;;;;;;;15.25;3.40;;;8.60;90.30;;;;;;5151922;28;20037;-33
2022/02/18 01:03:30;;;;;;;14.52;3.13;;;8.50;90.40;;;;;;5159113;28;20045;-33
2022/02/18 01:06:04;;;;;;;24.73;3.88;;;8.60;90.20;;;;;;5150701;28;20042;-34
2022/02/18 01:08:37;;;;;;;23.73;3.70;;;8.60;90.10;;;;;;5159041;28;20042;-33
2022/02/18 01:11:09;;;;;;;15.98;3.67;;;8.50;89.70;;;;;;5175170;28;20476;-33
2022/02/18 01:13:42;;;;;;;19.42;3.40;;;8.50;90.00;;;;;;5156896;28;21831;-32
2022/02/18 01:16:17;;;;;;;21.45;3.20;;;8.50;90.40;;;;;;5160460;28;20068;-33
2022/02/18 01:18:50;;;;;;;22.57;4.53;;;8.50;90.30;;;;;;5177118;28;20041;-33
2022/02/18 01:21:23;;;;;;;18.13;2.95;;;8.50;90.30;;;;;;5161074;28;20553;-33
2022/02/18 01:23:57;;;;;;;18.85;3.67;;;8.50;91.00;;;;;;5159544;28;20981;-33
2022/02/18 01:26:30;;;;;;;12.10;3.08;;;8.50;90.60;;;;;;5174072;28;20046;-33
2022/02/18 01:29:03;;;;;;;18.00;3.35;;;8.50;90.70;;;;;;5158953;28;20058;-33
2022/02/18 01:31:38;;;;;;;15.68;3.28;;;8.50;90.80;;;;;;5156312;28;20181;-33
2022/02/18 01:34:10;;;;;;;22.35;3.63;;;8.50;91.20;;;;;;5182217;28;20050;-33
2022/02/18 01:36:43;;;;;;;21.95;3.35;;;8.50;91.00;;;;;;5175352;28;20556;-33
2022/02/18 01:39:18;;;;;;;19.00;3.38;;;8.60;91.00;;;;;;5165636;28;20718;-34
2022/02/18 01:41:51;;;;;;;13.73;3.17;;;8.50;91.20;;;;;;5175289;28;20136;-33
2022/02/18 01:44:50;;;;;;;21.60;3.97;;;8.50;91.50;;;;;;5176967;28;20045;-33
2022/02/18 01:47:26;;;;;;;20.90;3.55;;;8.50;91.70;;;;;;5156595;28;20053;-33
2022/02/18 01:49:59;;;;;;;18.95;3.47;;;8.50;91.50;;;;;;5180058;28;20045;-33
2022/02/18 01:52:35;;;;;;;17.58;3.45;;;8.50;91.10;;;;;;5182531;28;20042;-33
2022/02/18 01:55:13;;;;;;;18.35;2.70;;;8.50;91.60;;;;;;5182599;28;20052;-33
2022/02/18 01:57:46;;;;;;;18.15;3.22;;;8.50;91.50;;;;;;5180244;28;20049;-32
2022/02/18 02:00:22;;;;;;;14.35;3.53;;;8.50;91.70;;;;;;5176724;28;20041;-33
2022/02/18 02:02:58;;;;;;;14.95;3.63;;;8.50;91.80;;;;;;5166931;28;20061;-33
2022/02/18 02:05:30;;;;;;;18.48;3.83;;;8.50;92.10;;;;;;5175778;28;20433;-33
2022/02/18 02:08:03;;;;;;;22.05;3.72;;;8.60;92.40;;;;;;5161524;28;20037;-33
2022/02/18 02:10:36;;;;;;;14.02;3.22;;;8.50;92.40;;;;;;5155636;28;20524;-33
2022/02/18 02:13:37;;;;;;;15.90;4.22;;;8.50;92.40;;;;;;5171618;28;20046;-32
2022/02/18 02:16:21;;;;;;;23.35;4.20;;;8.50;91.90;;;;;;5162331;28;20050;-33
2022/02/18 02:18:54;;;;;;;15.77;3.30;;;8.50;92.20;;;;;;5165232;28;20033;-33
2022/02/18 02:21:28;;;;;;;23.30;3.97;;;8.50;92.30;;;;;;5165832;28;20048;-33
2022/02/18 02:24:02;;;;;;;18.70;3.63;;;8.50;92.30;;;;;;5151212;28;20045;-34
2022/02/18 02:26:38;;;;;;;16.15;3.67;;;8.50;92.60;;;;;;5159265;28;20041;-33
2022/02/18 02:29:12;;;;;;;19.35;3.55;;;8.50;93.20;;;;;;5157971;28;20049;-33
2022/02/18 02:31:48;;;;;;;20.13;3.97;;;8.50;93.10;;;;;;5154227;28;20678;-33
2022/02/18 02:34:20;;;;;;;20.55;4.13;;;8.50;93.40;;;;;;5179634;28;20054;-33
2022/02/18 02:36:56;;;;;;;15.07;3.00;;;8.50;93.40;;;;;;5180346;28;20429;-33
2022/02/18 02:39:33;;;;;;;18.38;3.03;;;8.50;93.20;;;;;;5175965;28;20048;-33
2022/02/18 02:42:07;;;;;;;15.27;3.05;;;8.60;93.50;;;;;;5178470;28;20046;-33
2022/02/18 02:44:41;;;;;;;16.85;3.38;;;8.50;93.30;;;;;;5168342;28;20042;-33
2022/02/18 02:47:18;;;;;;;12.20;2.47;;;8.50;93.70;;;;;;5160670;28;20460;-33
2022/02/18 02:49:52;;;;;;;11.52;2.78;;;8.60;93.40;;;;;;5164085;28;20049;-32
2022/02/18 02:52:25;;;;;;;20.45;3.47;;;8.60;93.80;;;;;;5163292;28;20046;-33
2022/02/18 02:55:10;;;;;;;17.20;3.35;;;8.60;94.30;;;;;;5172665;28;20057;-33
2022/02/18 02:57:45;;;;;;;18.77;3.08;;;8.60;94.00;;;;;;5171180;28;20037;-34
2022/02/18 03:00:18;;;;;;;18.98;3.08;;;8.60;94.40;;;;;;5152630;28;20509;-34
2022/02/18 03:02:51;;;;;;;21.35;4.15;;;8.60;94.20;;;;;;5161608;28;20048;-33
2022/02/18 03:05:35;;;;;;;17.83;4.13;;;8.60;94.10;;;;;;5162473;28;20042;-34
2022/02/18 03:08:10;;;;;;;14.68;3.50;;;8.60;94.00;;;;;;5173794;28;20057;-33
2022/02/18 03:11:14;;;;;;;;;;;8.60;94.30;;;;;;5157969;28;20064;-33
2022/02/18 03:13:41;;;;;;;19.23;4.38;;;8.60;93.60;;;;;;5176582;28;20551;-33
2022/02/18 03:16:14;;;;;;;25.98;4.60;;;9.90;94.00;;;;;;5148256;28;20577;-33
2022/02/18 03:18:48;;;;;;;16.02;3.13;;;8.60;93.90;;;;;;5166326;28;20049;-32
2022/02/18 03:21:21;;;;;;;14.85;3.13;;;8.60;94.00;;;;;;5160995;28;20050;-33
2022/02/18 03:23:54;;;;;;;13.80;2.97;;;8.60;93.80;;;;;;5153924;28;20390;-33
2022/02/18 03:26:28;;;;;;;22.48;3.85;;;9.50;94.00;;;;;;5165365;28;20046;-34
2022/02/18 03:29:09;;;;;;;25.13;4.25;;;8.60;94.10;;;;;;5165858;28;20057;-33
2022/02/18 03:31:58;;;;;;;13.90;3.45;;;8.60;93.90;;;;;;5156954;28;20053;-34
2022/02/18 03:34:34;;;;;;;15.80;3.17;;;8.60;94.10;;;;;;5146819;28;20065;-33
2022/02/18 03:37:07;;;;;;;15.88;3.92;;;8.60;94.60;;;;;;5159688;28;20050;-33
2022/02/18 03:39:39;;;;;;;24.52;3.70;;;8.60;94.60;;;;;;5179830;28;20056;-33
2022/02/18 03:42:13;;;;;;;18.92;4.40;;;8.60;94.30;;;;;;5148607;28;20041;-33
2022/02/18 03:44:46;;;;;;;22.45;3.88;;;8.60;95.00;;;;;;5159328;28;20042;-33
2022/02/18 03:47:19;;;;;;;27.30;3.78;;;11.00;95.50;;;;;;5151934;28;25766;-33
2022/02/18 03:49:51;;;;;;;24.10;4.65;;;8.60;95.00;;;;;;5160630;28;20052;-33
2022/02/18 03:52:24;;;;;;;27.43;6.07;;;8.60;94.80;;;;;;5161654;28;20049;-33
2022/02/18 03:54:57;;;;;;;15.77;3.47;;;8.60;95.40;;;;;;5162807;28;20054;-33
2022/02/18 03:57:29;;;;;;;25.35;3.60;;;8.60;96.00;;;;;;5156116;28;20057;-33
2022/02/18 04:00:04;;;;;;;20.05;3.72;;;8.70;95.50;;;;;;5158357;28;20049;-33
2022/02/18 04:02:38;;;;;;;17.45;3.55;;;8.60;95.30;;;;;;5178029;28;20044;-34
2022/02/18 04:05:17;;;;;;;18.80;3.33;;;8.60;95.80;;;;;;5162020;28;20060;-34
2022/02/18 04:08:00;;;;;;;22.45;3.20;;;8.60;95.40;;;;;;5154615;28;20060;-33
2022/02/18 04:10:32;;;;;;;17.33;3.35;;;8.70;95.50;;;;;;5162761;28;20975;-33
2022/02/18 04:13:13;;;;;;;18.75;3.88;;;7.80;95.90;;;;;;5174916;28;20064;-33
2022/02/18 04:15:46;;;;;;;22.55;3.95;;;8.70;96.00;;;;;;5173379;28;20546;-33
2022/02/18 04:18:19;;;;;;;22.05;3.88;;;8.70;96.00;;;;;;5164124;28;20056;-33
2022/02/18 04:20:56;;;;;;;17.50;2.97;;;8.70;95.90;;;;;;5158792;28;20069;-32
2022/02/18 04:24:00;;;;;;;15.45;3.30;;;8.70;95.50;;;;;;5150600;28;20061;-34
2022/02/18 04:26:33;;;;;;;23.02;5.47;;;8.70;96.00;;;;;;5162513;28;20034;-33
2022/02/18 04:29:05;;;;;;;21.20;4.03;;;8.60;96.10;;;;;;5157669;28;20045;-32
2022/02/18 04:31:41;;;;;;;27.75;3.70;;;8.70;96.10;;;;;;5152997;28;20646;-33
2022/02/18 04:34:13;;;;;;;21.17;3.47;;;8.70;95.80;;;;;;5172931;28;20053;-33
2022/02/18 04:36:46;;;;;;;18.15;3.13;;;8.60;96.40;;;;;;5179496;28;20494;-32
2022/02/18 04:39:18;;;;;;;17.67;3.55;;;8.60;95.80;;;;;;5179791;28;20049;-33
2022/02/18 04:41:51;;;;;;;22.27;3.55;;;8.60;95.70;;;;;;5180464;28;20450;-32
2022/02/18 04:44:23;;;;;;;19.10;3.13;;;8.60;95.30;;;;;;5171736;28;20411;-33
2022/02/18 04:46:56;;;;;;;22.67;3.45;;;8.60;95.80;;;;;;5178197;28;20548;-33
2022/02/18 04:49:29;;;;;;;14.55;3.28;;;8.60;95.60;;;;;;5178579;28;20456;-33
2022/02/18 04:52:17;;;;;;;22.67;4.00;;;8.60;95.50;;;;;;5177528;28;20092;-33
2022/02/18 04:54:49;;;;;;;17.40;3.10;;;8.60;95.50;;;;;;5172792;28;20041;-33
2022/02/18 04:57:22;;;;;;;21.73;4.50;;;8.70;95.60;;;;;;5159356;28;20748;-33
2022/02/18 04:59:55;;;;;;;20.08;3.67;;;8.60;95.80;;;;;;5168997;28;20076;-33
2022/02/18 05:02:27;;;;;;;24.42;3.20;;;8.60;96.00;;;;;;5153446;28;20076;-33
2022/02/18 05:05:01;;;;;;;19.25;3.35;;;8.60;96.50;;;;;;5159988;28;20890;-33
2022/02/18 05:07:34;;;;;;;10.65;3.05;;;8.60;96.30;;;;;;5158671;28;20054;-33
2022/02/18 05:10:07;;;;;;;20.08;3.70;;;8.60;96.00;;;;;;5175833;28;20053;-33
2022/02/18 05:12:41;;;;;;;16.67;3.65;;;8.60;96.10;;;;;;5163343;28;22395;-33
2022/02/18 05:15:13;;;;;;;19.60;4.15;;;8.60;96.00;;;;;;5158901;28;20899;-34
2022/02/18 05:17:48;;;;;;;17.92;3.75;;;7.10;95.00;;;;;;5168523;28;20633;-33
2022/02/18 05:20:20;;;;;;;18.52;3.30;;;8.60;95.60;;;;;;5171894;28;21205;-32
2022/02/18 05:22:54;;;;;;;17.17;3.17;;;8.60;95.90;;;;;;5164182;28;20042;-32
2022/02/18 05:25:26;;;;;;;20.17;3.95;;;8.60;95.70;;;;;;5175263;28;20041;-34
2022/02/18 05:27:59;;;;;;;14.85;2.92;;;8.60;96.10;;;;;;5167713;28;20409;-33
2022/02/18 05:30:32;;;;;;;18.08;3.03;;;8.60;96.70;;;;;;5168213;28;20498;-34
2022/02/18 05:33:04;;;;;;;14.77;4.38;;;8.60;96.30;;;;;;5170331;28;20053;-33
2022/02/18 05:35:39;;;;;;;19.83;3.65;;;8.60;96.20;;;;;;5172258;28;20742;-34
2022/02/18 05:38:11;;;;;;;16.98;4.10;;;8.60;96.30;;;;;;5101447;28;20668;-79
2022/02/18 05:40:44;;;;;;;17.00;3.15;;;8.20;95.70;;;;;;5123956;28;21218;-80
2022/02/18 05:43:16;;;;;;;18.85;3.25;;;8.50;96.00;;;;;;5117773;28;20034;-80
2022/02/18 05:45:49;;;;;;;25.50;3.65;;;8.50;95.80;;;;;;5110213;28;20780;-79
2022/02/18 05:48:21;;;;;;;16.00;3.50;;;8.50;95.60;;;;;;5110614;28;20046;-77
2022/02/18 05:50:54;;;;;;;28.30;3.88;;;8.50;95.80;;;;;;5142963;23;20054;-32
2022/02/18 05:53:26;;;;;;;16.48;3.55;;;8.50;95.80;;;;;;5131820;28;20050;-32
2022/02/18 05:55:59;;;;;;;20.67;3.67;;;8.50;95.80;;;;;;5140861;28;20038;-33
2022/02/18 05:58:32;;;;;;;13.98;3.88;;;8.50;96.00;;;;;;5129067;28;20677;-33
2022/02/18 06:01:05;;;;;;;16.23;3.45;;;8.50;96.10;;;;;;5129331;28;20272;-32
2022/02/18 06:03:37;;;;;;;21.17;4.50;;;8.60;96.40;;;;;;5132695;28;20306;-34
2022/02/18 06:06:10;;;;;;;19.15;6.10;;;7.30;95.30;;;;;;5132093;28;20047;-33
2022/02/18 06:08:43;;;;;;;20.23;6.53;;;8.60;95.80;;;;;;5118507;28;20055;-32
2022/02/18 06:11:15;;;;;;;24.57;6.10;;;8.60;95.70;;;;;;5125860;28;20046;-32
2022/02/18 06:13:48;;;;;;;25.45;6.07;;;8.60;95.70;;;;;;5115990;28;20065;-33
2022/02/18 06:16:20;;;;;;;26.08;5.47;;;8.60;95.80;;;;;;5118675;28;20562;-35
2022/02/18 06:18:53;;;;;;;19.13;5.03;;;8.60;95.80;;;;;;5120668;28;22104;-33
2022/02/18 06:21:26;;;;;;;11.65;3.63;;;7.00;95.20;;;;;;5117457;28;20392;-33
2022/02/18 06:23:59;;;;;;;17.92;3.33;;;8.60;95.80;;;;;;5109494;28;20065;-33
2022/02/18 06:26:31;;;;;;;22.65;3.08;;;8.60;96.40;;;;;;5123720;28;20054;-33
2022/02/18 06:29:04;;;;;;;21.33;3.85;;;8.60;95.90;;;;;;5126323;28;20488;-33
2022/02/18 06:31:37;;;;;;;16.88;3.80;;;8.60;96.00;;;;;;5130511;28;20058;-33
2022/02/18 06:34:10;;;;;;;21.30;3.80;;;8.60;96.10;;;;;;5132045;28;20042;-32
2022/02/18 06:36:43;;;;;;;14.18;3.45;;;6.20;95.20;;;;;;5127661;28;20061;-33
2022/02/18 06:39:15;;;;;;;18.45;3.40;;;8.60;96.00;;;;;;5139663;28;20050;-32
2022/02/18 06:41:49;;;;;;;14.13;3.50;;;8.60;95.90;;;;;;5131669;28;20057;-33
2022/02/18 06:44:21;;;;;;;;;;;8.60;95.90;;;;;;5125040;28;20041;-33
2022/02/18 06:46:54;;;;;;;20.20;2.92;;;8.50;95.80;;;;;;5136746;28;19933;-33
2022/02/18 06:49:29;;;;;;;19.45;4.18;;;9.00;96.10;;;;;;5123872;28;20042;-33
2022/02/18 06:52:02;;;;;;;17.43;3.63;;;6.70;95.40;;;;;;5151047;28;20065;-32
2022/02/18 06:54:35;;;;;;;12.03;3.17;;;8.60;96.10;;;;;;5164955;28;20601;-33
2022/02/18 06:57:11;;;;;;;10.43;3.30;;;8.60;96.20;;;;;;5167983;28;20296;-33
2022/02/18 06:59:43;;;;;;;23.75;3.90;;;8.60;95.90;;;;;;5155514;28;20595;-32
2022/02/18 07:02:16;;;;;;;19.45;4.03;;;8.60;95.90;;;;;;5159755;28;20389;-33
2022/02/18 07:04:48;;;;;;;19.15;4.10;;;8.10;95.60;;;;;;5137519;28;20046;-32
2022/02/18 07:07:21;;;;;;;13.98;3.17;;;8.70;95.90;;;;;;5141109;28;20406;-33
2022/02/18 07:09:53;;;;;;;21.38;3.67;;;8.70;95.80;;;;;;5156475;28;20049;-32
2022/02/18 07:12:27;;;;;;;22.63;5.90;;;8.70;95.70;;;;;;5140081;28;20046;-33
2022/02/18 07:15:00;;;;;;;24.15;4.32;;;9.10;95.50;;;;;;5165779;28;20061;-32
2022/02/18 07:17:34;;;;;;;15.18;3.58;;;8.70;95.60;;;;;;5149510;28;20045;-33
2022/02/18 07:20:09;;;;;;;;;;;8.80;95.60;;;;;;5164809;28;20037;-33
2022/02/18 07:22:42;;;;;;;17.85;3.80;;;8.70;95.40;;;;;;5167157;28;19929;-33
2022/02/18 07:25:16;;;;;;;15.88;3.55;;;8.70;95.50;;;;;;5167723;28;20325;-32
2022/02/18 07:27:49;;;;;;;;;;;8.80;95.40;;;;;;5167620;28;20042;-32
2022/02/18 07:30:22;;;;;;;17.45;3.80;;;8.70;95.30;;;;;;5149792;28;19928;-33
2022/02/18 07:32:54;;;;;;;19.52;4.35;;;8.70;95.40;;;;;;5149867;28;20050;-33
2022/02/18 07:35:32;;;;;;;22.42;4.90;;;8.80;95.50;;;;;;5164805;28;20058;-34
2022/02/18 07:38:05;;;;;;;17.08;4.35;;;8.80;95.50;;;;;;5162822;28;20275;-33
2022/02/18 07:40:37;;;;;;;20.50;4.50;;;8.80;95.50;;;;;;5165574;28;20052;-33
2022/02/18 07:43:10;;;;;;;19.45;4.75;;;8.80;95.30;;;;;;5168824;28;20038;-32
2022/02/18 07:46:03;;;;;;;26.45;4.07;;;8.90;95.20;;;;;;5153555;28;20054;-33
2022/02/18 07:48:36;;;;;;;15.45;3.47;;;8.90;95.10;;;;;;5168300;28;20060;-33
2022/02/18 07:51:09;;;;;;;;;;;8.90;95.10;;;;;;5159115;28;20050;-33
2022/02/18 07:53:41;;;;;;;14.98;4.25;;;8.80;95.00;;;;;;5156784;28;20380;-32
2022/02/18 07:56:14;;;;;;;19.10;3.65;;;8.90;95.10;;;;;;5167120;28;20433;-32
2022/02/18 07:58:46;;;;;;;15.43;3.20;;;8.90;95.10;;;;;;5167069;28;20050;-32
2022/02/18 08:01:19;;;;;;;17.33;3.53;;;9.00;94.90;;;;;;5147907;28;20588;-33
2022/02/18 08:03:52;;;;;;;20.65;4.07;;;8.90;95.00;;;;;;5163078;28;20050;-33
2022/02/18 08:06:25;;;;;;;23.60;3.67;;;8.30;94.70;;;;;;5159604;28;20042;-32
2022/02/18 08:08:57;;;;;;;22.33;3.70;;;9.00;94.90;;;;;;5167129;28;20050;-32
2022/02/18 08:11:30;;;;;;;15.82;3.45;;;9.00;95.30;;;;;;5150071;28;20060;-33
2022/02/18 08:14:03;;;;;;;9.45;3.03;;;9.00;95.50;;;;;;5163880;28;20041;-33
2022/02/18 08:16:35;;;;;;;18.20;3.75;;;9.00;95.80;;;;;;5162065;28;20065;-32
2022/02/18 08:19:10;;;;;;;11.20;3.55;;;9.00;95.50;;;;;;5165104;28;20225;-33
2022/02/18 08:21:42;;;;;;;17.42;3.20;;;9.00;95.40;;;;;;5162385;28;20512;-33
2022/02/18 08:24:18;;;;;;;13.75;3.42;;;9.00;95.40;;;;;;5150089;28;20057;-32
2022/02/18 08:26:51;;;;;;;18.25;3.92;;;9.00;95.50;;;;;;5166702;28;20414;-32
2022/02/18 08:29:24;;;;;;;;;;;8.90;95.50;;;;;;5166346;28;20405;-33
2022/02/18 08:31:57;;;;;;;17.70;4.00;;;8.90;95.40;;;;;;5142328;28;19945;-32
2022/02/18 08:34:30;;;;;;;13.80;4.03;;;8.90;95.60;;;;;;5147217;28;20069;-33
2022/02/18 08:37:03;;;;;;;18.50;3.88;;;9.00;96.00;;;;;;5167146;28;20054;-32
2022/02/18 08:39:37;;;;;;;18.52;4.28;;;11.40;97.40;;;;;;5144568;28;20042;-33
2022/02/18 08:42:11;;;;;;;19.65;4.13;;;9.00;96.70;;;;;;5169062;28;20050;-32
2022/02/18 08:44:43;;;;;;;22.65;7.53;;;9.00;96.70;;;;;;5171526;28;20057;-33
2022/02/18 08:47:17;;;;;;;20.52;8.38;;;9.00;97.10;;;;;;5170028;28;20045;-32
2022/02/18 08:49:49;;;;;;;22.90;6.93;;;9.00;97.30;;;;;;5153081;28;20038;-33
2022/02/18 08:52:22;;;;;;;17.63;5.13;;;9.00;97.80;;;;;;5133595;28;20062;-32
2022/02/18 08:54:54;;;;;;;16.50;4.80;;;9.00;98.00;;;;;;5165524;28;20573;-32
2022/02/18 08:57:26;;;;;;;16.50;4.75;;;9.00;98.30;;;;;;5158619;28;20636;-32
2022/02/18 08:59:59;;;;;;;14.93;4.55;;;9.00;98.80;;;;;;5160920;28;20586;-32
2022/02/18 09:02:34;;;;;;;17.02;3.92;;;9.00;99.20;;;;;;5164399;28;20050;-33
2022/02/18 09:05:08;;;;;;;12.68;3.00;;;9.00;99.10;;;;;;5169480;28;20050;-32
2022/02/18 09:07:43;;;;;;;;;;;9.00;99.50;;;;;;5166306;28;20525;-32
2022/02/18 09:10:15;;;;;;;16.08;3.15;;;9.00;99.90;;;;;;5141066;28;19932;-32
2022/02/18 09:12:48;;;;;;;11.45;3.10;;;10.20;99.90;;;;;;5164723;28;20379;-33
2022/02/18 09:15:20;;;;;;;14.02;3.63;;;9.10;99.90;;;;;;5163638;28;20061;-32
2022/02/18 09:18:02;;;;;;;17.92;3.75;;;9.10;99.90;;;;;;5148717;28;20042;-33
2022/02/18 09:20:35;;;;;;;15.07;3.22;;;9.10;99.90;;;;;;5155815;28;20061;-32
2022/02/18 09:23:07;;;;;;;15.63;3.05;;;9.10;99.90;;;;;;5160932;28;20390;-33
2022/02/18 09:25:41;;;;;;;10.02;2.55;;;9.20;99.90;;;;;;5159125;28;20046;-32
2022/02/18 09:28:14;;;;;;;13.52;4.30;;;9.20;99.90;;;;;;5131106;28;20045;-33
2022/02/18 09:30:48;;;;;;;11.48;3.05;;;9.20;99.90;;;;;;5148346;28;20030;-33
2022/02/18 09:33:21;;;;;;;12.23;2.97;;;9.20;99.90;;;;;;5159972;28;20505;-32
2022/02/18 09:35:53;;;;;;;11.32;2.90;;;9.30;99.80;;;;;;5157128;28;20055;-32
2022/02/18 09:38:28;;;;;;;9.05;3.13;;;9.30;99.80;;;;;;5155869;28;20564;-33
2022/02/18 09:41:01;;;;;;;12.18;2.90;;;9.40;99.90;;;;;;5158340;28;20497;-33
2022/02/18 09:43:36;;;;;;;7.50;2.60;;;9.40;98.90;;;;;;5144567;28;20045;-33
2022/02/18 09:46:10;;;;;;;18.98;3.90;;;9.40;98.80;;;;;;5143825;28;20054;-33
2022/02/18 09:48:43;;;;;;;11.35;2.85;;;9.50;98.70;;;;;;5164179;28;20042;-33
2022/02/18 09:51:19;;;;;;;10.32;2.88;;;9.50;98.90;;;;;;5138928;28;20497;-32
2022/02/18 09:53:52;;;;;;;11.18;3.33;;;9.60;98.70;;;;;;5142419;28;20042;-33
2022/02/18 09:56:25;;;;;;;14.20;3.90;;;9.60;98.80;;;;;;5166476;28;20053;-33
2022/02/18 09:59:01;;;;;;;10.68;2.35;;;9.70;99.00;;;;;;5143119;28;20072;-33
2022/02/18 10:01:34;;;;;;;14.43;2.67;;;9.70;98.90;;;;;;5165427;28;20046;-33
2022/02/18 10:04:09;;;;;;;8.88;2.70;;;9.70;99.00;;;;;;5165661;28;20430;-33
2022/02/18 10:06:41;;;;;;;8.15;2.65;;;9.70;98.80;;;;;;5165860;28;20042;-32
2022/02/18 10:09:14;;;;;;;15.20;2.95;;;9.80;98.20;;;;;;5163712;28;20048;-32
2022/02/18 10:11:59;;;;;;;11.93;2.72;;;9.80;98.40;;;;;;5169095;28;20042;-33
2022/02/18 10:14:51;;;;;;;10.10;2.97;;;9.90;97.80;;;;;;5164844;28;20045;-33
2022/02/18 10:17:34;;;;;;;11.98;2.58;;;9.90;97.50;;;;;;5146255;28;20045;-33
2022/02/18 10:20:22;;;;;;;10.80;3.15;;;9.90;97.30;;;;;;5169892;28;20255;-33
2022/02/18 10:23:07;;;;;;;10.23;2.70;;;9.90;97.60;;;;;;5130735;28;20045;-32
2022/02/18 10:25:45;;;;;;;8.98;2.70;;;10.00;97.70;;;;;;5152861;28;20042;-32
2022/02/18 10:28:19;;;;;;;9.95;2.58;;;10.00;97.70;;;;;;5168938;28;20145;-33
2022/02/18 10:31:01;;;;;;;10.70;2.75;;;10.00;97.40;;;;;;5167163;28;20405;-32
2022/02/18 10:33:37;;;;;;;8.40;2.42;;;10.10;96.20;;;;;;5168702;28;20041;-33
2022/02/18 10:36:15;;;;;;;9.05;2.63;;;10.10;96.40;;;;;;5167466;28;20054;-33
2022/02/18 10:39:29;;;;;;;10.43;2.63;;;10.10;96.20;;;;;;5169356;28;20062;-33
2022/02/18 10:42:02;;;;;;;9.85;2.50;;;10.10;94.70;;;;;;5153578;28;20054;-33
2022/02/18 10:44:36;;;;;;;7.00;2.85;;;10.20;94.90;;;;;;5167647;28;20050;-32
2022/02/18 10:47:21;;;;;;;11.50;2.40;;;10.20;94.90;;;;;;5166923;28;20488;-33
2022/02/18 10:49:53;;;;;;;8.30;2.60;;;10.30;93.90;;;;;;5161004;28;20057;-33
2022/02/18 10:52:26;;;;;;;7.03;2.10;;;10.30;93.70;;;;;;5148059;28;20644;-33
2022/02/18 10:55:07;;;;;;;11.95;3.08;;;10.30;93.00;;;;;;5168590;28;20041;-33
2022/02/18 10:57:39;;;;;;;7.05;2.13;;;10.30;92.20;;;;;;5129285;28;20434;-33
2022/02/18 11:00:14;;;;;;;10.90;2.60;;;10.30;93.00;;;;;;5159406;28;20076;-34
2022/02/18 11:02:50;;;;;;;8.70;2.53;;;10.30;92.80;;;;;;5155351;28;20041;-33
2022/02/18 11:05:29;;;;;;;10.30;2.50;;;10.30;92.50;;;;;;5163595;28;20402;-33
2022/02/18 11:08:02;;;;;;;11.25;2.90;;;10.40;92.40;;;;;;5167018;28;20060;-33
2022/02/18 11:10:37;;;;;;;;;;;10.40;92.30;;;;;;5146652;28;20050;-33
2022/02/18 11:13:12;;;;;;;12.57;3.38;;;10.40;92.10;;;;;;5158596;28;20451;-32
2022/02/18 11:15:44;;;;;;;8.13;2.72;;;10.40;92.10;;;;;;5138768;28;20052;-33
2022/02/18 11:18:18;;;;;;;7.38;2.30;;;10.50;91.60;;;;;;5165467;28;20259;-32
2022/02/18 11:20:50;;;;;;;11.25;2.85;;;10.50;91.60;;;;;;5161980;28;20041;-32
2022/02/18 11:23:23;;;;;;;7.65;2.47;;;10.50;91.20;;;;;;5160290;28;20042;-33
2022/02/18 11:26:02;;;;;;;7.85;2.67;;;10.50;90.80;;;;;;5226541;28;21046;-33
2022/02/18 11:28:34;;;;;;;11.97;3.30;;;10.50;90.80;;;;;;5230470;28;20048;-33
2022/02/18 11:31:13;;;;;;;9.77;2.75;;;10.50;90.70;;;;;;5228832;28;20055;-33
2022/02/18 11:34:13;;;;;;;11.38;3.00;;;10.50;90.80;;;;;;5229576;28;20067;-33
2022/02/18 11:37:10;;;;;;;9.70;2.80;;;10.60;90.30;;;;;;5236436;28;20067;-33
2022/02/18 11:39:56;;;;;;;8.32;3.05;;;10.60;90.90;;;;;;5224041;28;20490;-33
2022/02/18 11:42:47;;;;;;;9.77;3.03;;;10.60;90.80;;;;;;5240222;28;20052;-33
2022/02/18 11:45:40;;;;;;;9.38;2.38;;;10.70;90.60;;;;;;5238358;28;20059;-33
2022/02/18 11:48:39;;;;;;;8.20;2.57;;;10.60;90.40;;;;;;5231939;28;20083;-33
2022/02/18 11:51:26;;;;;;;11.10;2.35;;;10.70;90.40;;;;;;5225035;28;20040;-33
2022/02/18 11:54:03;;;;;;;14.20;2.30;;;10.70;89.80;;;;;;5233295;28;20052;-33
2022/02/18 11:56:41;;;;;;;8.57;2.35;;;10.60;90.00;;;;;;5233847;28;20052;-33
2022/02/18 11:59:14;;;;;;;8.77;2.70;;;10.70;90.20;;;;;;5228231;28;20388;-33
2022/02/18 12:02:06;;;;;;;12.98;2.85;;;10.70;90.10;;;;;;5230448;28;20411;-33
2022/02/18 12:04:40;;;;;;;11.73;2.88;;;10.70;90.40;;;;;;5236504;28;20595;-33
2022/02/18 12:07:26;;;;;;;9.25;2.42;;;10.70;90.80;;;;;;5237993;28;20324;-33
2022/02/18 12:10:01;;;;;;;12.10;3.10;;;10.70;90.50;;;;;;5235797;28;20052;-33
2022/02/18 12:12:39;;;;;;;7.38;2.88;;;10.70;90.60;;;;;;5231401;28;20048;-33
2022/02/18 12:15:14;;;;;;;7.38;2.38;;;10.70;90.60;;;;;;5228666;28;20059;-33
2022/02/18 12:17:54;;;;;;;9.82;2.50;;;10.80;90.80;;;;;;5240042;28;20052;-34
2022/02/18 12:20:29;;;;;;;11.23;2.47;;;10.70;90.70;;;;;;5229294;28;20055;-34
2022/02/18 12:23:26;;;;;;;14.25;2.45;;;10.70;90.50;;;;;;5220636;28;20064;-33
2022/02/18 12:26:20;;;;;;;9.00;2.97;;;10.80;90.70;;;;;;5226974;28;20040;-33
2022/02/18 12:29:16;;;;;;;10.98;3.05;;;10.80;90.00;;;;;;5233746;28;20067;-33
2022/02/18 12:31:51;;;;;;;12.77;3.42;;;10.70;90.50;;;;;;5216935;28;20052;-34
2022/02/18 12:34:33;;;;;;;7.55;2.85;;;10.80;90.50;;;;;;5224571;28;20048;-33
2022/02/18 12:37:06;;;;;;;9.68;3.17;;;10.80;90.30;;;;;;5213439;28;20060;-31
2022/02/18 12:39:45;;;;;;;13.00;3.13;;;10.80;90.60;;;;;;5211404;28;20432;-31
2022/02/18 12:42:25;;;;;;;15.27;3.30;;;10.80;90.70;;;;;;5212680;28;20059;-31
2022/02/18 12:45:00;;;;;;;11.73;2.90;;;10.80;90.90;;;;;;5214219;28;20045;-33
2022/02/18 12:47:33;;;;;;;10.85;2.95;;;10.80;90.70;;;;;;5206546;28;20044;-33
2022/02/18 12:50:08;;;;;;;;;;;10.90;90.70;;;;;;5213720;28;20037;-33
2022/02/18 12:52:42;;;;;;;12.02;3.15;;;10.90;90.70;;;;;;5202805;28;19929;-31
2022/02/18 12:55:17;;;;;;;11.32;3.53;;;10.90;90.50;;;;;;5215945;28;20049;-31
2022/02/18 12:57:50;;;;;;;7.97;2.75;;;10.90;90.40;;;;;;5223997;28;20517;-31
2022/02/18 13:00:23;;;;;;;10.30;3.75;;;10.90;90.70;;;;;;5202010;28;20053;-31
2022/02/18 13:02:59;;;;;;;15.35;3.25;;;10.90;90.40;;;;;;5210421;28;20045;-33
2022/02/18 13:05:36;;;;;;;8.23;2.80;;;11.00;90.20;;;;;;5209241;28;20760;-33
2022/02/18 13:08:20;;;;;;;6.63;2.67;;;11.00;90.00;;;;;;5224920;28;20283;-33
2022/02/18 13:10:54;;;;;;;9.18;2.60;;;11.00;90.30;;;;;;5223881;28;20048;-33
2022/02/18 13:13:33;;;;;;;7.60;2.93;;;11.00;89.90;;;;;;5219806;28;20049;-33
2022/02/18 13:16:06;;;;;;;9.63;2.95;;;11.00;90.00;;;;;;5211187;28;20052;-34
2022/02/18 13:18:40;;;;;;;10.37;2.30;;;11.00;89.80;;;;;;5195787;28;20056;-31
2022/02/18 13:21:15;;;;;;;7.18;2.50;;;11.00;89.70;;;;;;5211928;28;20056;-31
2022/02/18 13:23:48;;;;;;;7.35;2.55;;;11.00;89.90;;;;;;5207253;28;20053;-32
2022/02/18 13:26:25;;;;;;;11.27;2.90;;;11.00;89.80;;;;;;5213157;28;20044;-32
2022/02/18 13:28:59;;;;;;;11.07;2.80;;;11.00;90.10;;;;;;5204829;28;20052;-32
2022/02/18 13:31:52;;;;;;;9.97;2.47;;;11.00;90.20;;;;;;5199693;28;20527;-31